createdAt,value
2023-05-17T00:01:52.700Z,14.05
2023-05-17T00:04:21.362Z,14.02
2023-05-17T00:06:49.345Z,14.00
2023-05-17T00:09:17.641Z,14.05
2023-05-17T00:11:45.753Z,14.03
2023-05-17T00:14:13.848Z,14.02
2023-05-17T00:16:42.696Z,13.97
2023-05-17T00:19:11.189Z,13.93
2023-05-17T00:21:39.464Z,13.94
2023-05-17T00:24:07.952Z,13.94
2023-05-17T00:26:36.912Z,13.91
2023-05-17T00:29:05.214Z,13.80
2023-05-17T00:31:33.294Z,13.85
2023-05-17T00:34:01.467Z,13.81
2023-05-17T00:36:29.789Z,13.81
2023-05-17T00:38:57.942Z,13.87
2023-05-17T00:41:26.330Z,13.89
2023-05-17T00:43:54.658Z,13.86
2023-05-17T00:46:22.774Z,13.86
2023-05-17T00:48:51.013Z,13.86
2023-05-17T00:51:21.176Z,13.79
2023-05-17T00:53:49.989Z,13.73
2023-05-17T00:56:18.290Z,13.73
2023-05-17T00:58:46.813Z,13.69
2023-05-17T01:01:15.600Z,13.70
2023-05-17T01:03:46.476Z,13.68
2023-05-17T01:06:15.156Z,13.63
2023-05-17T01:08:44.476Z,13.61
2023-05-17T01:11:35.111Z,13.55
2023-05-17T01:14:57.066Z,13.55
2023-05-17T01:17:36.193Z,13.60
2023-05-17T01:20:31.690Z,13.54
2023-05-17T01:23:24.496Z,13.55
2023-05-17T01:26:04.223Z,13.60
2023-05-17T01:28:33.105Z,13.61
2023-05-17T01:31:04.054Z,13.65
2023-05-17T01:33:32.875Z,13.65
2023-05-17T01:36:02.248Z,13.58
2023-05-17T01:38:30.575Z,13.62
2023-05-17T01:41:38.016Z,13.57
2023-05-17T01:44:05.891Z,13.57
2023-05-17T01:46:42.578Z,13.55
2023-05-17T01:49:35.307Z,13.57
2023-05-17T01:52:07.092Z,13.52
2023-05-17T01:55:04.362Z,13.48
2023-05-17T01:57:37.376Z,13.43
2023-05-17T02:00:09.697Z,13.43
2023-05-17T02:02:45.580Z,13.50
2023-05-17T02:05:14.457Z,13.48
2023-05-17T02:07:42.608Z,13.39
2023-05-17T02:10:11.824Z,13.41
2023-05-17T02:12:44.334Z,13.39
2023-05-17T02:15:13.930Z,13.33
2023-05-17T02:17:42.254Z,13.27
2023-05-17T02:20:12.058Z,13.25
2023-05-17T02:22:40.450Z,13.23
2023-05-17T02:25:09.090Z,13.23
2023-05-17T02:27:37.472Z,13.17
2023-05-17T02:30:07.665Z,13.19
2023-05-17T02:32:35.824Z,13.16
2023-05-17T02:35:04.417Z,13.11
2023-05-17T02:37:32.534Z,13.12
2023-05-17T02:40:00.922Z,13.11
2023-05-17T02:42:28.972Z,13.10
2023-05-17T02:44:58.128Z,13.09
2023-05-17T02:47:26.295Z,13.05
2023-05-17T02:49:54.712Z,13.07
2023-05-17T02:52:22.861Z,13.05
2023-05-17T02:54:51.728Z,13.08
2023-05-17T02:57:20.193Z,13.03
2023-05-17T02:59:48.556Z,13.02
2023-05-17T03:02:16.922Z,13.02
2023-05-17T03:04:45.100Z,13.02
2023-05-17T03:07:13.611Z,13.01
2023-05-17T03:09:42.977Z,13.02
2023-05-17T03:12:11.685Z,12.99
2023-05-17T03:14:40.092Z,12.92
2023-05-17T03:17:08.164Z,12.91
2023-05-17T03:19:39.036Z,12.98
2023-05-17T03:22:07.122Z,13.00
2023-05-17T03:24:35.637Z,13.00
2023-05-17T03:27:04.278Z,13.00
2023-05-17T03:29:33.111Z,13.02
2023-05-17T03:32:01.736Z,13.09
2023-05-17T03:34:30.109Z,13.06
2023-05-17T03:36:58.238Z,13.13
2023-05-17T03:39:26.604Z,13.16
2023-05-17T03:41:55.239Z,13.16
2023-05-17T03:44:24.389Z,13.19
2023-05-17T03:46:54.196Z,13.23
2023-05-17T03:49:23.880Z,13.24
2023-05-17T03:51:52.995Z,13.29
2023-05-17T03:54:22.072Z,13.40
2023-05-17T03:56:50.753Z,13.40
2023-05-17T03:59:20.170Z,13.42
2023-05-17T04:01:49.175Z,13.46
2023-05-17T04:04:17.494Z,13.45
2023-05-17T04:06:45.484Z,13.50
2023-05-17T04:09:15.767Z,13.52
2023-05-17T04:11:44.261Z,13.57
2023-05-17T04:14:14.221Z,13.61
2023-05-17T04:16:43.497Z,13.69
2023-05-17T04:19:12.075Z,13.69
2023-05-17T04:21:41.030Z,13.79
2023-05-17T04:24:10.139Z,13.86
2023-05-17T04:26:40.048Z,13.96
2023-05-17T04:29:08.831Z,14.06
2023-05-17T04:31:37.382Z,14.23
2023-05-17T04:34:05.918Z,14.23
2023-05-17T04:36:34.410Z,14.26
2023-05-17T04:39:04.975Z,14.44
2023-05-17T04:41:33.777Z,14.62
2023-05-17T04:44:06.640Z,14.84
2023-05-17T04:46:37.549Z,14.88
2023-05-17T04:49:06.461Z,14.92
2023-05-17T04:51:35.141Z,15.02
2023-05-17T04:54:18.216Z,15.11
2023-05-17T04:56:46.845Z,15.28
2023-05-17T04:59:22.770Z,15.44
2023-05-17T05:01:51.671Z,15.60
2023-05-17T05:04:20.079Z,15.70
2023-05-17T05:06:50.260Z,15.83
2023-05-17T05:09:19.760Z,15.92
2023-05-17T05:11:48.938Z,15.93
2023-05-17T05:14:17.990Z,15.95
2023-05-17T05:16:46.589Z,15.93
2023-05-17T05:19:16.181Z,16.05
2023-05-17T05:21:46.883Z,16.22
2023-05-17T05:24:16.560Z,16.31
2023-05-17T05:26:46.012Z,16.33
2023-05-17T05:29:15.692Z,16.22
2023-05-17T05:31:44.200Z,16.12
2023-05-17T05:34:13.151Z,16.21
2023-05-17T05:36:43.962Z,16.25
2023-05-17T05:39:12.752Z,16.23
2023-05-17T05:41:41.335Z,16.33
2023-05-17T05:44:09.657Z,16.45
2023-05-17T05:46:37.904Z,16.55
2023-05-17T05:49:07.162Z,16.55
2023-05-17T05:51:35.858Z,16.60
2023-05-17T05:54:05.057Z,16.70
2023-05-17T05:56:33.873Z,16.88
2023-05-17T05:59:02.430Z,16.92
2023-05-17T06:01:30.843Z,16.84
2023-05-17T06:03:59.162Z,16.87
2023-05-17T06:06:27.933Z,16.88
2023-05-17T06:08:58.123Z,16.93
2023-05-17T06:11:27.830Z,16.93
2023-05-17T06:13:55.901Z,16.89
2023-05-17T06:16:24.025Z,16.96
2023-05-17T06:18:52.325Z,17.02
2023-05-17T06:21:20.616Z,17.09
2023-05-17T06:23:49.071Z,17.14
2023-05-17T06:26:17.215Z,17.12
2023-05-17T06:28:45.539Z,17.19
2023-05-17T06:31:13.637Z,17.23
2023-05-17T06:33:41.962Z,17.11
2023-05-17T06:36:10.202Z,17.18
2023-05-17T06:38:38.296Z,17.15
2023-05-17T06:41:06.677Z,17.12
2023-05-17T06:43:36.485Z,16.98
2023-05-17T06:46:05.841Z,17.09
2023-05-17T06:48:33.949Z,17.12
2023-05-17T06:51:02.117Z,17.13
2023-05-17T06:53:30.123Z,17.13
2023-05-17T06:55:58.278Z,16.98
2023-05-17T06:58:26.668Z,16.94
2023-05-17T07:00:54.981Z,17.00
2023-05-17T07:03:23.460Z,16.99
2023-05-17T07:05:51.784Z,17.07
2023-05-17T07:08:22.318Z,16.84
2023-05-17T07:10:52.738Z,17.10
2023-05-17T07:13:20.956Z,17.27
2023-05-17T07:15:49.086Z,17.49
2023-05-17T07:18:17.952Z,17.53
2023-05-17T07:20:46.611Z,17.40
2023-05-17T07:23:14.789Z,17.33
2023-05-17T07:25:43.278Z,17.32
2023-05-17T07:28:12.100Z,17.26
2023-05-17T07:30:40.243Z,17.36
2023-05-17T07:33:08.956Z,17.38
2023-05-17T07:35:39.994Z,17.57
2023-05-17T07:38:08.100Z,17.67
2023-05-17T07:40:36.293Z,17.68
2023-05-17T07:43:04.894Z,17.94
2023-05-17T07:45:35.959Z,18.05
2023-05-17T07:48:04.535Z,18.19
2023-05-17T07:50:33.341Z,17.99
2023-05-17T07:53:01.558Z,18.05
2023-05-17T07:55:30.382Z,18.28
2023-05-17T07:57:58.741Z,18.47
2023-05-17T08:00:29.118Z,18.69
2023-05-17T08:02:57.675Z,18.92
2023-05-17T08:05:26.179Z,19.08
2023-05-17T08:07:54.350Z,19.16
2023-05-17T08:10:23.164Z,18.89
2023-05-17T08:12:51.263Z,18.89
2023-05-17T08:15:19.423Z,18.83
2023-05-17T08:17:48.281Z,18.55
2023-05-17T08:20:16.612Z,18.53
2023-05-17T08:22:44.985Z,18.38
2023-05-17T08:25:13.406Z,18.25
2023-05-17T08:27:42.091Z,18.17
2023-05-17T08:30:14.894Z,17.97
2023-05-17T08:32:46.574Z,17.31
2023-05-17T08:35:15.255Z,17.10
2023-05-17T08:37:43.349Z,16.75
2023-05-17T08:40:14.984Z,16.94
2023-05-17T08:42:43.810Z,16.91
2023-05-17T08:45:13.798Z,17.17
2023-05-17T08:47:43.460Z,17.10
2023-05-17T08:50:13.051Z,17.09
2023-05-17T08:52:45.041Z,17.11
2023-05-17T08:55:16.423Z,17.13
2023-05-17T08:57:47.267Z,17.04
2023-05-17T09:00:19.956Z,17.05
2023-05-17T09:02:48.796Z,17.01
2023-05-17T09:05:17.004Z,16.94
2023-05-17T09:07:45.631Z,16.90
2023-05-17T09:10:14.229Z,17.10
2023-05-17T09:12:42.618Z,17.16
2023-05-17T09:15:24.155Z,16.89
2023-05-17T09:17:54.213Z,17.00
2023-05-17T09:20:34.583Z,16.84
2023-05-17T09:23:13.503Z,16.92
2023-05-17T09:25:49.978Z,16.75
2023-05-17T09:28:23.665Z,16.63
2023-05-17T09:30:52.114Z,16.41
2023-05-17T09:33:22.957Z,16.33
2023-05-17T09:35:51.383Z,15.87
2023-05-17T09:38:25.760Z,15.42
2023-05-17T09:40:54.296Z,15.53
2023-05-17T09:43:26.994Z,15.32
2023-05-17T09:45:59.422Z,15.42
2023-05-17T09:48:28.347Z,15.32
2023-05-17T09:50:56.805Z,15.28
2023-05-17T09:53:31.063Z,15.12
2023-05-17T09:56:05.698Z,15.11
2023-05-17T09:58:37.650Z,15.06
2023-05-17T10:01:11.381Z,15.13
2023-05-17T10:03:40.185Z,15.13
2023-05-17T10:06:23.763Z,15.06
2023-05-17T10:09:02.572Z,15.05
2023-05-17T10:11:37.866Z,15.15
2023-05-17T10:14:23.117Z,15.20
2023-05-17T10:16:52.409Z,15.09
2023-05-17T10:19:25.383Z,15.23
2023-05-17T10:21:54.824Z,15.43
2023-05-17T10:24:24.466Z,15.25
2023-05-17T10:26:54.542Z,15.26
2023-05-17T10:29:25.115Z,15.23
2023-05-17T10:31:55.041Z,15.36
2023-05-17T10:34:27.297Z,15.30
2023-05-17T10:36:58.588Z,14.98
2023-05-17T10:39:27.899Z,15.00
2023-05-17T10:42:13.576Z,14.60
2023-05-17T10:44:43.178Z,14.55
2023-05-17T10:47:17.701Z,14.49
2023-05-17T10:49:48.548Z,14.41
2023-05-17T10:52:21.584Z,14.46
2023-05-17T10:54:53.537Z,14.29
2023-05-17T10:57:50.713Z,14.41
2023-05-17T11:00:22.246Z,14.48
2023-05-17T11:02:52.722Z,14.38
2023-05-17T11:05:28.153Z,14.39
2023-05-17T11:08:17.476Z,14.38
2023-05-17T11:11:11.068Z,14.43
2023-05-17T11:13:55.387Z,14.31
2023-05-17T11:16:37.524Z,14.30
2023-05-17T11:19:12.505Z,14.25
2023-05-17T11:21:48.665Z,14.20
2023-05-17T11:24:27.286Z,14.25
2023-05-17T11:26:58.356Z,14.19
2023-05-17T11:29:31.209Z,14.05
2023-05-17T11:31:59.568Z,13.85
2023-05-17T11:34:28.625Z,13.98
2023-05-17T11:36:57.223Z,14.13
2023-05-17T11:39:27.013Z,13.91
2023-05-17T11:41:57.911Z,13.79
2023-05-17T11:44:32.296Z,13.60
2023-05-17T11:47:10.365Z,13.86
2023-05-17T11:49:41.247Z,13.69
2023-05-17T11:52:11.217Z,13.74
2023-05-17T11:54:41.510Z,13.70
2023-05-17T11:57:12.030Z,13.57
2023-05-17T11:59:41.426Z,13.64
2023-05-17T12:02:11.310Z,13.63
2023-05-17T12:04:42.557Z,13.73
2023-05-17T12:07:11.781Z,13.70
2023-05-17T12:09:45.580Z,13.67
2023-05-17T12:12:14.412Z,13.64
2023-05-17T12:14:48.144Z,13.62
2023-05-17T12:17:38.590Z,13.58
2023-05-17T12:20:10.228Z,13.48
2023-05-17T12:22:58.358Z,13.51
2023-05-17T12:25:34.035Z,13.47
2023-05-17T12:28:24.254Z,13.56
2023-05-17T12:31:00.291Z,13.64
2023-05-17T12:33:41.476Z,13.76
2023-05-17T12:36:13.190Z,13.76
2023-05-17T12:38:43.709Z,13.76
2023-05-17T12:41:20.014Z,13.72
2023-05-17T12:43:50.539Z,13.70
2023-05-17T12:46:24.281Z,13.79
2023-05-17T12:48:55.037Z,13.76
2023-05-17T12:51:27.245Z,13.89
2023-05-17T12:54:01.511Z,13.92
2023-05-17T12:56:30.723Z,13.98
2023-05-17T12:59:25.885Z,14.07
2023-05-17T13:01:56.941Z,14.16
2023-05-17T13:04:34.697Z,14.11
2023-05-17T13:07:12.481Z,13.87
2023-05-17T13:09:49.335Z,13.96
2023-05-17T13:12:26.584Z,13.93
2023-05-17T13:15:09.651Z,13.77
2023-05-17T13:17:47.535Z,13.73
2023-05-17T13:20:18.983Z,13.57
2023-05-17T13:22:48.971Z,13.49
2023-05-17T13:25:18.110Z,13.54
2023-05-17T13:27:49.030Z,13.51
2023-05-17T13:30:24.061Z,13.35
2023-05-17T13:32:54.838Z,13.23
2023-05-17T13:35:23.532Z,13.11
2023-05-17T13:37:51.807Z,13.12
2023-05-17T13:40:21.016Z,13.26
2023-05-17T13:42:50.504Z,13.31
2023-05-17T13:45:20.992Z,13.27
2023-05-17T13:47:51.723Z,13.22
2023-05-17T13:50:21.237Z,13.24
2023-05-17T13:52:51.011Z,13.33
2023-05-17T13:55:21.336Z,13.32
2023-05-17T13:57:49.769Z,13.31
2023-05-17T14:00:20.521Z,13.20
2023-05-17T14:02:50.396Z,13.22
2023-05-17T14:05:21.179Z,13.16
2023-05-17T14:07:55.282Z,13.25
2023-05-17T14:10:24.987Z,13.13
2023-05-17T14:12:57.591Z,13.24
2023-05-17T14:15:30.296Z,13.28
2023-05-17T14:17:59.187Z,13.32
2023-05-17T14:20:31.147Z,13.37
2023-05-17T14:23:01.784Z,13.31
2023-05-17T14:25:30.821Z,13.27
2023-05-17T14:27:59.523Z,13.14
2023-05-17T14:30:29.658Z,13.05
2023-05-17T14:33:00.854Z,13.18
2023-05-17T14:35:31.347Z,13.21
2023-05-17T14:38:00.020Z,13.11
2023-05-17T14:40:28.677Z,13.12
2023-05-17T14:42:58.536Z,13.06
2023-05-17T14:45:27.524Z,12.98
2023-05-17T14:47:56.083Z,13.07
2023-05-17T14:50:35.120Z,13.10
2023-05-17T14:53:06.899Z,13.16
2023-05-17T14:55:35.880Z,13.14
2023-05-17T14:58:04.109Z,13.14
2023-05-17T15:00:35.467Z,13.13
2023-05-17T15:03:06.481Z,13.09
2023-05-17T15:05:36.414Z,13.06
2023-05-17T15:08:10.250Z,13.10
2023-05-17T15:10:39.763Z,13.04
2023-05-17T15:13:11.229Z,12.91
2023-05-17T15:15:46.437Z,12.90
2023-05-17T15:18:17.053Z,12.93
2023-05-17T15:20:48.794Z,12.86
2023-05-17T15:23:23.863Z,12.73
2023-05-17T15:25:56.468Z,12.81
2023-05-17T15:28:28.556Z,12.80
2023-05-17T15:31:10.861Z,12.83
2023-05-17T15:33:40.484Z,12.87
2023-05-17T15:36:11.228Z,12.88
2023-05-17T15:38:42.698Z,12.82
2023-05-17T15:41:22.213Z,12.82
2023-05-17T15:43:53.488Z,12.81
2023-05-17T15:46:24.192Z,12.74
2023-05-17T15:48:55.990Z,12.71
2023-05-17T15:51:25.661Z,12.57
2023-05-17T15:53:58.586Z,12.59
2023-05-17T15:56:30.773Z,12.55
2023-05-17T15:59:02.885Z,12.54
2023-05-17T16:01:31.254Z,12.46
2023-05-17T16:04:00.025Z,12.49
2023-05-17T16:06:35.953Z,12.51
2023-05-17T16:09:04.658Z,12.56
2023-05-17T16:11:32.824Z,12.55
2023-05-17T16:14:01.218Z,12.51
2023-05-17T16:16:33.436Z,12.43
2023-05-17T16:19:03.066Z,12.43
2023-05-17T16:21:33.415Z,12.40
2023-05-17T16:24:04.588Z,12.42
2023-05-17T16:26:43.884Z,12.34
2023-05-17T16:29:21.451Z,12.37
2023-05-17T16:31:51.586Z,12.33
2023-05-17T16:34:23.761Z,12.32
2023-05-17T16:36:53.574Z,12.33
2023-05-17T16:39:24.139Z,12.25
2023-05-17T16:41:53.270Z,12.24
2023-05-17T16:44:22.046Z,12.25
2023-05-17T16:46:50.953Z,12.26
2023-05-17T16:49:20.219Z,12.20
2023-05-17T16:51:56.923Z,12.19
2023-05-17T16:54:38.273Z,12.21
2023-05-17T16:57:11.941Z,12.17
2023-05-17T16:59:43.002Z,12.17
2023-05-17T17:02:12.599Z,12.15
2023-05-17T17:04:42.879Z,12.14
2023-05-17T17:07:13.254Z,12.12
2023-05-17T17:09:43.353Z,12.10
2023-05-17T17:12:24.200Z,12.12
2023-05-17T17:14:54.910Z,12.02
2023-05-17T17:17:23.340Z,11.94
2023-05-17T17:19:52.439Z,12.02
2023-05-17T17:22:21.846Z,12.03
2023-05-17T17:24:50.666Z,11.99
2023-05-17T17:27:19.551Z,11.98
2023-05-17T17:29:48.756Z,12.03
2023-05-17T17:32:17.301Z,11.98
2023-05-17T17:34:45.634Z,11.97
2023-05-17T17:37:14.388Z,12.00
2023-05-17T17:39:42.826Z,11.90
2023-05-17T17:42:11.388Z,11.92
2023-05-17T17:44:39.694Z,11.95
2023-05-17T17:47:08.483Z,11.88
2023-05-17T17:49:37.362Z,11.87
2023-05-17T17:52:08.026Z,11.87
2023-05-17T17:54:36.473Z,11.86
2023-05-17T17:57:05.574Z,11.83
2023-05-17T17:59:34.190Z,11.80
2023-05-17T18:02:02.382Z,11.75
2023-05-17T18:04:31.026Z,11.78
2023-05-17T18:06:59.913Z,11.74
2023-05-17T18:09:28.719Z,11.71
2023-05-17T18:11:58.133Z,11.69
2023-05-17T18:14:26.815Z,11.71
2023-05-17T18:16:58.161Z,11.55
2023-05-17T18:19:26.712Z,11.53
2023-05-17T18:21:55.454Z,11.52
2023-05-17T18:24:24.416Z,11.46
2023-05-17T18:26:55.260Z,11.44
2023-05-17T18:29:24.205Z,11.41
2023-05-17T18:31:52.780Z,11.38
2023-05-17T18:34:21.708Z,11.37
2023-05-17T18:36:50.706Z,11.31
2023-05-17T18:39:18.867Z,11.31
2023-05-17T18:41:47.176Z,11.33
2023-05-17T18:44:16.980Z,11.34
2023-05-17T18:46:47.506Z,11.38
2023-05-17T18:49:17.290Z,11.35
2023-05-17T18:51:45.845Z,11.37
2023-05-17T18:54:14.562Z,11.36
2023-05-17T18:56:43.214Z,11.31
2023-05-17T18:59:14.263Z,11.30
2023-05-17T19:01:44.447Z,11.25
2023-05-17T19:04:13.999Z,11.24
2023-05-17T19:06:42.703Z,11.22
2023-05-17T19:09:11.189Z,11.16
2023-05-17T19:11:42.653Z,11.13
2023-05-17T19:14:11.663Z,11.06
2023-05-17T19:16:40.349Z,11.04
2023-05-17T19:19:11.930Z,11.04
2023-05-17T19:21:41.079Z,10.99
2023-05-17T19:24:09.933Z,10.92
2023-05-17T19:26:38.727Z,10.87
2023-05-17T19:29:07.826Z,10.84
2023-05-17T19:31:37.380Z,10.77
2023-05-17T19:34:05.791Z,10.79
2023-05-17T19:36:35.097Z,10.79
2023-05-17T19:39:04.555Z,10.76
2023-05-17T19:41:33.512Z,10.70
2023-05-17T19:44:02.954Z,10.70
2023-05-17T19:46:31.578Z,10.64
2023-05-17T19:49:00.848Z,10.58
2023-05-17T19:51:29.916Z,10.51
2023-05-17T19:53:58.723Z,10.54
2023-05-17T19:56:27.198Z,10.51
2023-05-17T19:58:56.343Z,10.49
2023-05-17T20:01:25.073Z,10.42
2023-05-17T20:03:53.382Z,10.45
2023-05-17T20:06:22.388Z,10.41
2023-05-17T20:08:51.035Z,10.40
2023-05-17T20:11:19.669Z,10.38
2023-05-17T20:13:48.825Z,10.32
2023-05-17T20:16:17.473Z,10.33
2023-05-17T20:18:46.712Z,10.28
2023-05-17T20:21:19.797Z,10.18
2023-05-17T20:23:48.812Z,10.14
2023-05-17T20:26:19.133Z,10.21
2023-05-17T20:28:47.785Z,10.15
2023-05-17T20:31:17.646Z,10.15
2023-05-17T20:33:46.577Z,10.11
2023-05-17T20:36:15.477Z,10.10
2023-05-17T20:38:44.287Z,10.03
2023-05-17T20:41:15.066Z,10.08
2023-05-17T20:43:49.967Z,10.03
2023-05-17T20:46:19.722Z,10.02
2023-05-17T20:48:51.056Z,10.02
2023-05-17T20:51:19.863Z,9.98
2023-05-17T20:53:48.553Z,9.98
2023-05-17T20:56:19.611Z,9.95
2023-05-17T20:58:49.091Z,10.00
2023-05-17T21:01:17.489Z,9.98
2023-05-17T21:03:46.982Z,10.01
2023-05-17T21:06:16.335Z,9.96
2023-05-17T21:08:45.016Z,9.98
2023-05-17T21:11:19.776Z,9.96
2023-05-17T21:13:52.041Z,9.96
2023-05-17T21:16:20.994Z,9.98
2023-05-17T21:18:49.413Z,9.95
2023-05-17T21:21:18.310Z,9.94
2023-05-17T21:23:48.537Z,9.94
2023-05-17T21:26:17.249Z,9.97
2023-05-17T21:28:45.739Z,9.97
2023-05-17T21:31:15.944Z,9.96
2023-05-17T21:33:44.219Z,10.00
2023-05-17T21:36:12.605Z,9.94
2023-05-17T21:38:41.466Z,9.89
2023-05-17T21:41:09.784Z,9.97
2023-05-17T21:43:37.966Z,9.95
2023-05-17T21:46:06.170Z,9.91
2023-05-17T21:48:34.701Z,9.90
2023-05-17T21:51:02.972Z,9.88
2023-05-17T21:53:31.087Z,9.86
2023-05-17T21:56:02.570Z,9.85
2023-05-17T21:58:32.378Z,9.85
2023-05-17T22:01:01.486Z,9.84
2023-05-17T22:03:30.107Z,9.86
2023-05-17T22:05:58.879Z,9.81
2023-05-17T22:08:27.249Z,9.79
2023-05-17T22:10:55.946Z,9.80
2023-05-17T22:13:26.543Z,9.76
2023-05-17T22:15:58.519Z,9.76
2023-05-17T22:18:27.521Z,9.70
2023-05-17T22:20:59.387Z,9.71
2023-05-17T22:23:28.106Z,9.68
2023-05-17T22:25:58.365Z,9.71
2023-05-17T22:28:27.634Z,9.70
2023-05-17T22:30:55.937Z,9.73
2023-05-17T22:33:24.246Z,9.70
2023-05-17T22:35:53.704Z,9.70
2023-05-17T22:38:25.117Z,9.70
2023-05-17T22:40:53.562Z,9.65
2023-05-17T22:43:22.011Z,9.67
2023-05-17T22:45:51.247Z,9.67
2023-05-17T22:48:22.423Z,9.65
2023-05-17T22:50:50.641Z,9.64
2023-05-17T22:53:19.232Z,9.63
2023-05-17T22:55:49.236Z,9.63
2023-05-17T22:58:17.734Z,9.62
2023-05-17T23:00:46.071Z,9.66
2023-05-17T23:03:14.572Z,9.67
2023-05-17T23:05:45.627Z,9.63
2023-05-17T23:08:15.842Z,9.64
2023-05-17T23:10:49.081Z,9.65
2023-05-17T23:13:17.990Z,9.65
2023-05-17T23:15:47.513Z,9.64
2023-05-17T23:18:16.186Z,9.63
2023-05-17T23:20:46.409Z,9.61
2023-05-17T23:23:16.132Z,9.60
2023-05-17T23:25:48.507Z,9.63
2023-05-17T23:28:16.775Z,9.63
2023-05-17T23:30:48.719Z,9.65
2023-05-17T23:33:19.039Z,9.64
2023-05-17T23:35:47.234Z,9.62
2023-05-17T23:38:15.319Z,9.63
2023-05-17T23:40:43.861Z,9.62
2023-05-17T23:43:12.092Z,9.58
2023-05-17T23:45:40.165Z,9.58
2023-05-17T23:48:09.908Z,9.53
2023-05-17T23:50:39.228Z,9.45
2023-05-17T23:53:09.830Z,9.40
2023-05-17T23:55:38.767Z,9.36
2023-05-17T23:58:07.652Z,9.33
